createdAt,value
2018-05-24T00:00:33.336Z,59.00
2018-05-24T00:03:00.544Z,59.10
2018-05-24T00:05:27.817Z,59.10
2018-05-24T00:07:55.935Z,59.00
2018-05-24T00:10:23.123Z,59.00
2018-05-24T00:12:50.342Z,59.10
2018-05-24T00:15:17.546Z,59.10
2018-05-24T00:17:45.608Z,59.00
2018-05-24T00:20:13.580Z,59.00
2018-05-24T00:22:41.549Z,59.20
2018-05-24T00:25:09.568Z,59.00
2018-05-24T00:27:36.793Z,59.00
2018-05-24T00:30:04.063Z,58.90
2018-05-24T00:32:31.273Z,59.00
2018-05-24T00:34:59.288Z,59.00
2018-05-24T00:37:26.508Z,59.00
2018-05-24T00:39:53.738Z,58.90
2018-05-24T00:42:21.772Z,59.00
2018-05-24T00:44:49.053Z,58.90
2018-05-24T00:47:17.035Z,59.00
2018-05-24T00:49:45.046Z,59.00
2018-05-24T00:52:12.281Z,59.60
2018-05-24T00:54:39.531Z,59.00
2018-05-24T00:57:06.786Z,58.90
2018-05-24T00:59:34.094Z,59.00
2018-05-24T01:02:02.082Z,59.00
2018-05-24T01:04:30.092Z,59.10
2018-05-24T01:06:57.323Z,59.00
2018-05-24T01:09:24.540Z,59.00
2018-05-24T01:11:52.540Z,59.00
2018-05-24T01:14:19.764Z,58.90
2018-05-24T01:16:47.767Z,59.00
2018-05-24T01:19:14.995Z,59.00
2018-05-24T01:21:42.224Z,59.00
2018-05-24T01:24:10.237Z,59.00
2018-05-24T01:26:37.487Z,59.60
2018-05-24T01:29:04.757Z,59.00
2018-05-24T01:31:31.971Z,59.00
2018-05-24T01:33:59.226Z,59.00
2018-05-24T01:36:44.175Z,58.90
2018-05-24T01:39:12.164Z,58.90
2018-05-24T01:41:39.440Z,58.90
2018-05-24T01:44:06.700Z,58.80
2018-05-24T01:46:33.941Z,58.90
2018-05-24T01:49:01.926Z,58.80
2018-05-24T01:51:29.168Z,58.90
2018-05-24T01:53:56.428Z,58.80
2018-05-24T01:56:24.428Z,58.90
2018-05-24T01:58:52.424Z,58.90
2018-05-24T02:01:19.660Z,58.90
2018-05-24T02:03:47.632Z,58.80
2018-05-24T02:06:14.895Z,58.80
2018-05-24T02:08:42.105Z,58.80
2018-05-24T02:11:09.351Z,58.80
2018-05-24T02:13:36.588Z,58.80
2018-05-24T02:16:04.623Z,58.90
2018-05-24T02:18:31.851Z,58.80
2018-05-24T02:20:59.833Z,58.80
2018-05-24T02:23:27.065Z,58.80
2018-05-24T02:25:55.099Z,58.70
2018-05-24T02:28:22.394Z,58.70
2018-05-24T02:30:50.424Z,58.70
2018-05-24T02:33:17.665Z,58.60
2018-05-24T02:35:44.914Z,58.60
2018-05-24T02:38:12.905Z,58.70
2018-05-24T02:40:40.110Z,58.70
2018-05-24T02:43:07.348Z,58.70
2018-05-24T02:45:34.584Z,58.70
2018-05-24T02:48:02.614Z,58.60
2018-05-24T02:50:29.855Z,58.60
2018-05-24T02:52:57.895Z,58.70
2018-05-24T02:55:25.133Z,58.60
2018-05-24T02:57:52.372Z,58.60
2018-05-24T03:00:20.420Z,58.70
2018-05-24T03:02:47.735Z,58.70
2018-05-24T03:05:14.955Z,58.70
2018-05-24T03:07:42.221Z,58.70
2018-05-24T03:10:09.488Z,58.60
2018-05-24T03:12:36.734Z,58.60
2018-05-24T03:15:03.980Z,58.60
2018-05-24T03:17:31.229Z,58.60
2018-05-24T03:19:58.449Z,58.60
2018-05-24T03:22:26.488Z,58.60
2018-05-24T03:24:53.720Z,58.60
2018-05-24T03:27:20.927Z,58.60
2018-05-24T03:29:48.167Z,58.60
2018-05-24T03:32:16.218Z,58.60
2018-05-24T03:34:43.440Z,58.60
2018-05-24T03:37:10.686Z,58.90
2018-05-24T03:39:37.960Z,58.60
2018-05-24T03:42:05.186Z,58.60
2018-05-24T03:44:32.410Z,58.50
2018-05-24T03:46:59.624Z,58.40
2018-05-24T03:49:26.857Z,58.40
2018-05-24T03:51:54.091Z,58.30
2018-05-24T03:54:21.315Z,58.30
2018-05-24T03:56:48.546Z,58.20
2018-05-24T03:59:32.361Z,58.10
2018-05-24T04:02:05.393Z,58.10
2018-05-24T04:04:38.448Z,58.10
2018-05-24T04:07:06.520Z,58.10
2018-05-24T04:09:34.513Z,58.20
2018-05-24T04:12:01.827Z,58.10
2018-05-24T04:14:29.053Z,58.10
2018-05-24T04:16:56.266Z,58.10
2018-05-24T04:19:23.513Z,58.10
2018-05-24T04:21:50.795Z,58.10
2018-05-24T04:24:18.007Z,58.00
2018-05-24T04:26:46.037Z,57.70
2018-05-24T04:29:13.299Z,57.60
2018-05-24T04:31:40.547Z,57.60
2018-05-24T04:34:07.769Z,57.40
2018-05-24T04:36:35.025Z,57.20
2018-05-24T04:39:02.243Z,57.20
2018-05-24T04:41:29.503Z,57.20
2018-05-24T04:43:56.755Z,57.20
2018-05-24T04:46:23.964Z,57.20
2018-05-24T04:48:51.975Z,57.00
2018-05-24T04:51:19.193Z,57.00
2018-05-24T04:53:47.196Z,57.00
2018-05-24T04:56:14.451Z,57.00
2018-05-24T04:58:41.687Z,57.00
2018-05-24T05:01:08.942Z,57.00
2018-05-24T05:03:36.179Z,56.90
2018-05-24T05:06:03.406Z,56.80
2018-05-24T05:08:31.394Z,56.90
2018-05-24T05:10:58.632Z,56.80
2018-05-24T05:13:26.740Z,56.80
2018-05-24T05:15:54.707Z,56.90
2018-05-24T05:18:21.945Z,56.80
2018-05-24T05:20:49.238Z,56.80
2018-05-24T05:23:16.476Z,56.80
2018-05-24T05:25:43.711Z,56.80
2018-05-24T05:28:10.936Z,56.80
2018-05-24T05:30:38.929Z,56.90
2018-05-24T05:33:06.923Z,57.60
2018-05-24T05:35:34.188Z,56.90
2018-05-24T05:38:01.427Z,57.00
2018-05-24T05:40:28.632Z,57.00
2018-05-24T05:42:55.852Z,57.00
2018-05-24T05:45:23.083Z,57.00
2018-05-24T05:47:50.332Z,57.00
2018-05-24T05:50:17.557Z,57.10
2018-05-24T05:52:44.783Z,57.00
2018-05-24T05:55:12.063Z,57.20
2018-05-24T05:57:39.320Z,57.10
2018-05-24T06:00:06.596Z,57.20
2018-05-24T06:02:33.826Z,57.20
2018-05-24T06:05:01.091Z,57.20
2018-05-24T06:07:28.413Z,57.20
2018-05-24T06:09:55.653Z,57.20
2018-05-24T06:12:22.919Z,57.20
2018-05-24T06:14:50.141Z,57.30
2018-05-24T06:17:18.120Z,57.30
2018-05-24T06:19:45.308Z,57.30
2018-05-24T06:22:12.501Z,57.30
2018-05-24T06:24:40.522Z,57.40
2018-05-24T06:27:07.776Z,57.40
2018-05-24T06:29:35.011Z,57.40
2018-05-24T06:32:02.237Z,57.40
2018-05-24T06:34:29.456Z,57.40
2018-05-24T06:36:56.686Z,57.50
2018-05-24T06:39:23.964Z,57.30
2018-05-24T06:41:51.935Z,57.50
2018-05-24T06:44:19.908Z,57.60
2018-05-24T06:46:47.888Z,57.60
2018-05-24T06:49:15.156Z,58.20
2018-05-24T06:51:42.424Z,57.70
2018-05-24T06:54:10.424Z,57.80
2018-05-24T06:56:37.682Z,57.80
2018-05-24T06:59:04.947Z,57.80
2018-05-24T07:01:32.934Z,57.90
2018-05-24T07:04:00.165Z,57.80
2018-05-24T07:06:28.181Z,58.10
2018-05-24T07:08:55.395Z,58.00
2018-05-24T07:11:23.389Z,58.10
2018-05-24T07:13:50.603Z,58.10
2018-05-24T07:16:18.607Z,58.40
2018-05-24T07:18:45.860Z,58.30
2018-05-24T07:21:13.107Z,58.40
2018-05-24T07:23:40.293Z,58.40
2018-05-24T07:26:07.575Z,58.50
2018-05-24T07:28:35.559Z,58.50
2018-05-24T07:31:02.775Z,58.50
2018-05-24T07:33:30.023Z,58.40
2018-05-24T07:35:57.282Z,58.40
2018-05-24T07:38:24.503Z,58.40
2018-05-24T07:40:51.724Z,58.40
2018-05-24T07:43:19.039Z,58.40
2018-05-24T07:45:46.216Z,58.50
2018-05-24T07:48:13.411Z,58.50
2018-05-24T07:50:40.646Z,58.60
2018-05-24T07:53:07.915Z,58.60
2018-05-24T07:55:35.132Z,58.60
2018-05-24T07:58:02.360Z,58.60
2018-05-24T08:00:30.316Z,58.80
2018-05-24T08:02:58.512Z,59.00
2018-05-24T08:05:25.938Z,59.00
2018-05-24T08:07:53.954Z,58.90
2018-05-24T08:10:21.183Z,58.90
2018-05-24T08:12:48.423Z,58.80
2018-05-24T08:15:16.464Z,58.80
2018-05-24T08:17:44.506Z,58.80
2018-05-24T08:20:11.759Z,58.80
2018-05-24T08:22:39.012Z,58.80
2018-05-24T08:25:06.326Z,58.70
2018-05-24T08:27:33.564Z,58.20
2018-05-24T08:30:01.525Z,58.50
2018-05-24T08:32:29.488Z,59.10
2018-05-24T08:34:56.719Z,58.80
2018-05-24T08:37:23.929Z,59.50
2018-05-24T08:39:51.154Z,59.80
2018-05-24T08:42:19.136Z,60.00
2018-05-24T08:44:46.384Z,60.00
2018-05-24T08:47:13.646Z,59.80
2018-05-24T08:49:40.827Z,59.10
2018-05-24T08:52:08.060Z,59.30
2018-05-24T08:54:35.287Z,58.90
2018-05-24T08:57:02.526Z,59.30
2018-05-24T08:59:30.488Z,59.30
2018-05-24T09:01:58.475Z,59.60
2018-05-24T09:04:25.672Z,59.50
2018-05-24T09:06:52.912Z,59.70
2018-05-24T09:09:20.106Z,59.70
2018-05-24T09:11:48.118Z,59.40
2018-05-24T09:14:15.416Z,59.20
2018-05-24T09:16:42.608Z,59.40
2018-05-24T09:19:09.853Z,59.40
2018-05-24T09:21:37.114Z,59.70
2018-05-24T09:24:04.308Z,60.00
2018-05-24T09:26:31.547Z,59.80
2018-05-24T09:28:58.760Z,59.50
2018-05-24T09:31:25.972Z,59.60
2018-05-24T09:33:53.164Z,60.80
2018-05-24T09:36:20.490Z,60.10
2018-05-24T09:38:47.737Z,60.00
2018-05-24T09:41:15.734Z,60.10
2018-05-24T09:43:42.960Z,60.00
2018-05-24T09:46:10.961Z,60.00
2018-05-24T09:48:38.168Z,60.00
2018-05-24T09:51:06.146Z,59.80
2018-05-24T09:53:34.113Z,60.80
2018-05-24T09:56:02.108Z,60.60
2018-05-24T09:58:29.319Z,60.60
2018-05-24T10:00:57.296Z,60.90
2018-05-24T10:03:25.299Z,60.00
2018-05-24T10:05:52.512Z,60.00
2018-05-24T10:08:20.473Z,60.10
2018-05-24T10:10:48.455Z,60.00
2018-05-24T10:13:16.455Z,59.80
2018-05-24T10:15:43.699Z,59.80
2018-05-24T10:18:10.907Z,59.70
2018-05-24T10:20:38.117Z,59.60
2018-05-24T10:23:05.316Z,59.20
2018-05-24T10:25:33.319Z,59.40
2018-05-24T10:28:00.628Z,59.40
2018-05-24T10:30:27.864Z,59.40
2018-05-24T10:32:55.094Z,59.30
2018-05-24T10:35:22.325Z,59.10
2018-05-24T10:37:49.535Z,59.00
2018-05-24T10:40:17.508Z,59.60
2018-05-24T10:42:45.482Z,59.40
2018-05-24T10:45:13.538Z,59.20
2018-05-24T10:47:40.690Z,59.10
2018-05-24T10:50:08.703Z,58.90
2018-05-24T10:52:35.931Z,58.80
2018-05-24T10:55:03.183Z,58.90
2018-05-24T10:57:30.380Z,58.80
2018-05-24T10:59:57.616Z,58.80
2018-05-24T11:02:24.865Z,58.60
2018-05-24T11:04:52.121Z,58.40
2018-05-24T11:07:19.333Z,58.60
2018-05-24T11:09:47.347Z,58.60
2018-05-24T11:12:14.553Z,58.60
2018-05-24T11:14:41.779Z,58.70
2018-05-24T11:17:09.746Z,58.30
2018-05-24T11:19:37.048Z,58.20
2018-05-24T11:22:04.243Z,58.20
2018-05-24T11:24:31.463Z,58.20
2018-05-24T11:26:58.692Z,58.30
2018-05-24T11:29:25.968Z,58.30
2018-05-24T11:31:53.150Z,58.20
2018-05-24T11:34:20.392Z,58.30
2018-05-24T11:36:47.618Z,58.30
2018-05-24T11:39:14.891Z,58.70
2018-05-24T11:41:42.083Z,58.80
2018-05-24T11:44:09.291Z,58.90
2018-05-24T11:46:36.518Z,58.90
2018-05-24T11:49:03.731Z,58.70
2018-05-24T11:51:30.970Z,58.50
2018-05-24T11:53:58.958Z,58.00
2018-05-24T11:56:26.175Z,58.00
2018-05-24T11:58:53.397Z,58.10
2018-05-24T12:01:21.404Z,58.40
2018-05-24T12:03:49.379Z,58.20
2018-05-24T12:06:17.358Z,58.00
2018-05-24T12:08:44.556Z,58.00
2018-05-24T12:11:11.736Z,58.00
2018-05-24T12:13:39.827Z,58.30
2018-05-24T12:16:07.052Z,58.30
2018-05-24T12:18:35.074Z,58.30
2018-05-24T12:21:02.363Z,58.30
2018-05-24T12:23:29.573Z,58.20
2018-05-24T12:25:56.795Z,58.00
2018-05-24T12:28:23.991Z,58.30
2018-05-24T12:30:51.220Z,58.20
2018-05-24T12:33:18.443Z,58.00
2018-05-24T12:35:46.502Z,58.00
2018-05-24T12:38:14.486Z,58.10
2018-05-24T12:40:41.687Z,58.10
2018-05-24T12:43:08.916Z,58.10
2018-05-24T12:45:36.104Z,58.00
2018-05-24T12:48:03.327Z,58.00
2018-05-24T12:50:30.625Z,58.20
2018-05-24T12:52:58.666Z,58.20
2018-05-24T12:55:25.876Z,58.20
2018-05-24T12:57:53.099Z,58.10
2018-05-24T13:00:20.435Z,58.40
2018-05-24T13:02:48.412Z,59.10
2018-05-24T13:05:16.403Z,58.40
2018-05-24T13:07:43.615Z,58.30
2018-05-24T13:10:10.869Z,58.50
2018-05-24T13:12:38.086Z,58.20
2018-05-24T13:15:05.316Z,58.50
2018-05-24T13:17:32.590Z,58.50
2018-05-24T13:19:59.896Z,58.40
2018-05-24T13:22:27.168Z,58.20
2018-05-24T13:24:54.383Z,58.10
2018-05-24T13:27:22.388Z,58.20
2018-05-24T13:29:49.632Z,58.20
2018-05-24T13:32:17.013Z,58.40
2018-05-24T13:34:44.267Z,58.60
2018-05-24T13:37:11.492Z,58.40
2018-05-24T13:39:38.769Z,58.50
2018-05-24T13:42:06.035Z,58.80
2018-05-24T13:44:33.286Z,58.80
2018-05-24T13:47:00.495Z,58.80
2018-05-24T13:49:27.711Z,58.60
2018-05-24T13:51:55.737Z,58.30
2018-05-24T13:54:22.979Z,58.30
2018-05-24T13:56:50.182Z,58.20
2018-05-24T13:59:18.219Z,58.40
2018-05-24T14:01:46.252Z,58.30
2018-05-24T14:04:13.499Z,58.30
2018-05-24T14:06:40.761Z,58.70
2018-05-24T14:09:08.042Z,58.70
2018-05-24T14:11:35.321Z,58.80
2018-05-24T14:14:02.636Z,58.60
2018-05-24T14:16:29.901Z,59.10
2018-05-24T14:18:57.200Z,58.40
2018-05-24T14:21:25.209Z,58.40
2018-05-24T14:23:52.468Z,58.40
2018-05-24T14:26:19.712Z,58.40
2018-05-24T14:28:46.927Z,58.50
2018-05-24T14:31:14.144Z,58.60
2018-05-24T14:33:41.416Z,58.50
2018-05-24T14:36:09.576Z,58.70
2018-05-24T14:38:36.863Z,58.60
2018-05-24T14:41:04.118Z,59.00
2018-05-24T14:43:31.363Z,58.90
2018-05-24T14:45:58.642Z,58.80
2018-05-24T14:48:25.924Z,58.60
2018-05-24T14:50:53.261Z,58.70
2018-05-24T14:53:20.551Z,58.60
2018-05-24T14:55:48.617Z,58.40
2018-05-24T14:58:15.874Z,58.40
2018-05-24T15:00:43.993Z,57.30
2018-05-24T15:03:12.042Z,57.00
2018-05-24T15:05:39.283Z,57.00
2018-05-24T15:08:06.496Z,57.30
2018-05-24T15:10:33.760Z,57.30
2018-05-24T15:13:01.781Z,57.60
2018-05-24T15:15:29.076Z,57.60
2018-05-24T15:17:57.111Z,57.50
2018-05-24T15:20:24.436Z,57.40
2018-05-24T15:22:51.680Z,57.40
2018-05-24T15:25:18.973Z,57.40
2018-05-24T15:27:46.246Z,57.80
2018-05-24T15:30:13.492Z,58.10
2018-05-24T15:32:40.751Z,58.00
2018-05-24T15:35:08.020Z,58.00
2018-05-24T15:37:35.371Z,58.00
2018-05-24T15:40:03.452Z,58.10
2018-05-24T15:42:30.712Z,58.10
2018-05-24T15:44:57.989Z,58.20
2018-05-24T15:47:25.248Z,58.10
2018-05-24T15:49:52.515Z,58.20
2018-05-24T15:52:19.748Z,58.70
2018-05-24T15:54:47.783Z,59.50
2018-05-24T15:57:15.133Z,59.50
2018-05-24T15:59:42.416Z,59.40
2018-05-24T16:02:09.695Z,59.40
2018-05-24T16:04:36.989Z,59.50
2018-05-24T16:07:04.232Z,59.50
2018-05-24T16:09:32.354Z,60.60
2018-05-24T16:11:59.624Z,60.60
2018-05-24T16:14:26.885Z,60.90
2018-05-24T16:16:54.087Z,60.70
2018-05-24T16:19:21.320Z,60.80
2018-05-24T16:21:48.619Z,60.70
2018-05-24T16:24:15.867Z,60.50
2018-05-24T16:26:43.115Z,60.50
2018-05-24T16:29:10.356Z,60.20
2018-05-24T16:31:37.573Z,60.10
2018-05-24T16:34:04.903Z,60.10
2018-05-24T16:36:32.912Z,59.90
2018-05-24T16:39:00.170Z,59.80
2018-05-24T16:41:27.430Z,59.80
2018-05-24T16:43:54.757Z,59.50
2018-05-24T16:46:22.011Z,59.40
2018-05-24T16:48:49.207Z,59.10
2018-05-24T16:51:16.412Z,59.00
2018-05-24T16:53:43.631Z,58.90
2018-05-24T16:56:11.664Z,58.80
2018-05-24T16:58:38.905Z,58.80
2018-05-24T17:01:06.118Z,58.80
2018-05-24T17:03:33.356Z,58.70
2018-05-24T17:06:01.352Z,58.70
2018-05-24T17:08:28.608Z,58.70
2018-05-24T17:10:55.827Z,58.70
2018-05-24T17:13:23.833Z,58.60
2018-05-24T17:15:51.074Z,58.50
2018-05-24T17:18:18.280Z,58.40
2018-05-24T17:20:45.522Z,58.50
2018-05-24T17:23:12.744Z,58.30
2018-05-24T17:25:40.008Z,58.30
2018-05-24T17:28:07.215Z,58.30
2018-05-24T17:30:34.487Z,58.30
2018-05-24T17:33:01.742Z,58.30
2018-05-24T17:35:28.970Z,58.30
2018-05-24T17:37:56.191Z,58.20
2018-05-24T17:40:23.381Z,58.20
2018-05-24T17:42:50.577Z,58.10
2018-05-24T17:45:17.847Z,58.10
2018-05-24T17:47:45.818Z,58.00
2018-05-24T17:50:13.779Z,58.00
2018-05-24T17:52:41.767Z,57.90
2018-05-24T17:55:09.016Z,57.90
2018-05-24T17:57:37.078Z,57.90
2018-05-24T18:00:05.077Z,57.90
2018-05-24T18:02:32.345Z,57.80
2018-05-24T18:04:59.527Z,57.80
2018-05-24T18:07:26.732Z,57.80
2018-05-24T18:09:53.978Z,57.80
2018-05-24T18:12:21.235Z,57.80
2018-05-24T18:14:48.464Z,57.70
2018-05-24T18:17:15.684Z,57.70
2018-05-24T18:19:42.941Z,57.60
2018-05-24T18:22:10.952Z,57.60
2018-05-24T18:24:38.215Z,57.50
2018-05-24T18:27:05.495Z,57.50
2018-05-24T18:29:32.725Z,57.50
2018-05-24T18:31:59.919Z,57.50
2018-05-24T18:34:27.896Z,57.40
2018-05-24T18:36:55.894Z,57.40
2018-05-24T18:39:23.132Z,57.40
2018-05-24T18:41:50.367Z,57.30
2018-05-24T18:44:18.407Z,57.30
2018-05-24T18:46:45.636Z,57.30
2018-05-24T18:49:12.868Z,57.30
2018-05-24T18:51:40.074Z,57.30
2018-05-24T18:54:08.074Z,57.30
2018-05-24T18:56:35.398Z,57.30
2018-05-24T18:59:03.408Z,57.20
2018-05-24T19:01:30.615Z,57.20
2018-05-24T19:03:58.612Z,57.20
2018-05-24T19:06:25.847Z,57.20
2018-05-24T19:08:53.868Z,57.20
2018-05-24T19:11:21.072Z,57.20
2018-05-24T19:13:48.265Z,57.20
2018-05-24T19:16:15.477Z,57.30
2018-05-24T19:18:42.664Z,57.20
2018-05-24T19:21:09.874Z,57.20
2018-05-24T19:23:37.195Z,57.20
2018-05-24T19:26:04.408Z,57.20
2018-05-24T19:28:31.661Z,57.20
2018-05-24T19:30:58.880Z,57.10
2018-05-24T19:33:26.114Z,57.10
2018-05-24T19:35:54.209Z,57.10
2018-05-24T19:38:21.573Z,57.10
2018-05-24T19:40:49.031Z,57.10
2018-05-24T19:43:16.714Z,57.10
2018-05-24T19:45:45.111Z,57.10
2018-05-24T19:48:13.566Z,57.00
2018-05-24T19:50:42.044Z,57.00
2018-05-24T19:53:10.496Z,57.00
2018-05-24T19:55:38.590Z,57.00
2018-05-24T19:58:07.175Z,57.00
2018-05-24T20:00:35.089Z,57.00
2018-05-24T20:03:04.091Z,57.00
2018-05-24T20:05:32.203Z,56.90
2018-05-24T20:08:00.278Z,57.00
2018-05-24T20:10:28.348Z,57.00
2018-05-24T20:12:57.240Z,57.00
2018-05-24T20:15:25.304Z,57.00
2018-05-24T20:17:54.508Z,57.00
2018-05-24T20:20:22.754Z,57.00
2018-05-24T20:22:51.600Z,57.00
2018-05-24T20:25:20.204Z,57.00
2018-05-24T20:27:47.811Z,56.90
2018-05-24T20:30:15.937Z,57.00
2018-05-24T20:32:43.983Z,57.00
2018-05-24T20:35:11.971Z,56.90
2018-05-24T20:37:39.952Z,57.10
2018-05-24T20:40:07.187Z,57.10
2018-05-24T20:42:35.174Z,57.50
2018-05-24T20:45:02.380Z,57.40
2018-05-24T20:47:29.601Z,57.70
2018-05-24T20:49:56.830Z,57.90
2018-05-24T20:52:24.071Z,58.30
2018-05-24T20:54:51.305Z,58.40
2018-05-24T20:57:19.276Z,58.80
2018-05-24T20:59:47.225Z,58.90
2018-05-24T21:02:14.461Z,58.90
2018-05-24T21:04:41.685Z,59.40
2018-05-24T21:07:08.873Z,60.10
2018-05-24T21:09:36.920Z,60.60
2018-05-24T21:12:04.150Z,60.60
2018-05-24T21:14:31.386Z,60.50
2018-05-24T21:16:58.671Z,61.30
2018-05-24T21:19:25.905Z,60.50
2018-05-24T21:21:53.119Z,60.50
2018-05-24T21:24:21.095Z,60.50
2018-05-24T21:26:48.343Z,60.50
2018-05-24T21:29:16.307Z,60.40
2018-05-24T21:31:44.299Z,60.30
2018-05-24T21:34:11.534Z,60.30
2018-05-24T21:36:38.768Z,60.20
2018-05-24T21:39:06.766Z,60.10
2018-05-24T21:41:33.984Z,60.00
2018-05-24T21:44:01.991Z,60.10
2018-05-24T21:46:29.259Z,60.00
2018-05-24T21:48:56.468Z,60.00
2018-05-24T21:51:24.573Z,59.90
2018-05-24T21:53:51.835Z,59.80
2018-05-24T21:56:19.067Z,59.80
2018-05-24T21:58:46.271Z,59.70
2018-05-24T22:01:13.460Z,59.50
2018-05-24T22:03:40.660Z,59.50
2018-05-24T22:06:07.888Z,59.40
2018-05-24T22:08:35.104Z,59.40
2018-05-24T22:11:03.145Z,59.30
2018-05-24T22:13:31.141Z,59.20
2018-05-24T22:15:58.348Z,59.20
2018-05-24T22:18:25.572Z,59.20
2018-05-24T22:20:52.793Z,59.10
2018-05-24T22:23:20.029Z,59.00
2018-05-24T22:25:48.027Z,58.90
2018-05-24T22:28:16.111Z,58.90
2018-05-24T22:30:43.331Z,58.80
2018-05-24T22:33:10.536Z,58.70
2018-05-24T22:35:37.801Z,58.70
2018-05-24T22:38:05.035Z,58.60
2018-05-24T22:40:32.224Z,58.60
2018-05-24T22:43:00.238Z,58.40
2018-05-24T22:45:27.539Z,58.40
2018-05-24T22:47:55.515Z,57.80
2018-05-24T22:50:22.776Z,57.80
2018-05-24T22:52:50.007Z,57.50
2018-05-24T22:55:17.987Z,56.90
2018-05-24T22:57:45.944Z,56.80
2018-05-24T23:00:13.943Z,56.60
2018-05-24T23:02:41.145Z,56.60
2018-05-24T23:05:08.359Z,56.50
2018-05-24T23:07:35.553Z,56.40
2018-05-24T23:10:02.807Z,56.50
2018-05-24T23:12:30.811Z,56.50
2018-05-24T23:14:58.026Z,56.30
2018-05-24T23:17:25.976Z,56.50
2018-05-24T23:19:53.191Z,56.50
2018-05-24T23:22:26.227Z,56.40
2018-05-24T23:24:54.212Z,56.00
2018-05-24T23:27:22.170Z,55.80
2018-05-24T23:29:50.131Z,55.80
2018-05-24T23:32:18.088Z,55.90
2018-05-24T23:34:45.320Z,55.50
2018-05-24T23:37:12.537Z,55.20
2018-05-24T23:39:39.744Z,55.10
2018-05-24T23:42:06.976Z,55.10
2018-05-24T23:44:34.193Z,55.10
2018-05-24T23:47:01.395Z,55.10
2018-05-24T23:49:28.630Z,54.90
2018-05-24T23:51:55.862Z,54.90
2018-05-24T23:54:23.044Z,54.90
2018-05-24T23:56:50.253Z,55.00
2018-05-24T23:59:17.478Z,55.00
